createdAt,value
2024-03-25T00:00:12.600Z,9.18
2024-03-25T00:02:40.074Z,8.91
2024-03-25T00:05:10.286Z,8.62
2024-03-25T00:07:40.507Z,8.37
2024-03-25T00:10:09.410Z,8.14
2024-03-25T00:12:36.925Z,7.88
2024-03-25T00:15:04.377Z,8.38
2024-03-25T00:17:31.970Z,9.00
2024-03-25T00:19:58.889Z,9.06
2024-03-25T00:22:28.724Z,8.89
2024-03-25T00:24:55.745Z,8.65
2024-03-25T00:27:22.626Z,8.41
2024-03-25T00:29:49.562Z,8.17
2024-03-25T00:32:16.382Z,7.89
2024-03-25T00:34:43.233Z,8.26
2024-03-25T00:37:10.188Z,8.86
2024-03-25T00:39:38.891Z,8.96
2024-03-25T00:42:07.228Z,8.78
2024-03-25T00:44:34.087Z,8.51
2024-03-25T00:47:00.936Z,8.25
2024-03-25T00:49:28.018Z,8.01
2024-03-25T00:51:54.944Z,7.72
2024-03-25T00:54:21.677Z,8.17
2024-03-25T00:56:48.683Z,8.80
2024-03-25T00:59:15.553Z,8.87
2024-03-25T01:01:42.700Z,8.67
2024-03-25T01:04:09.540Z,8.40
2024-03-25T01:06:36.565Z,8.14
2024-03-25T01:09:04.898Z,7.92
2024-03-25T01:11:32.006Z,7.65
2024-03-25T01:13:58.998Z,8.07
2024-03-25T01:16:26.016Z,8.63
2024-03-25T01:18:52.867Z,8.67
2024-03-25T01:21:20.334Z,8.48
2024-03-25T01:23:47.118Z,8.22
2024-03-25T01:26:14.002Z,7.97
2024-03-25T01:28:41.032Z,7.76
2024-03-25T01:31:07.974Z,7.54
2024-03-25T01:33:35.005Z,7.25
2024-03-25T01:36:02.018Z,7.69
2024-03-25T01:38:29.436Z,8.30
2024-03-25T01:40:57.943Z,8.35
2024-03-25T01:43:24.888Z,8.12
2024-03-25T01:45:52.750Z,7.80
2024-03-25T01:48:19.632Z,7.49
2024-03-25T01:50:46.584Z,7.19
2024-03-25T01:53:13.536Z,6.84
2024-03-25T01:55:40.820Z,7.26
2024-03-25T01:58:08.996Z,7.88
2024-03-25T02:00:36.006Z,7.93
2024-03-25T02:03:03.791Z,7.71
2024-03-25T02:05:30.729Z,7.39
2024-03-25T02:07:57.585Z,7.06
2024-03-25T02:10:24.498Z,6.75
2024-03-25T02:12:51.493Z,6.38
2024-03-25T02:15:18.423Z,6.78
2024-03-25T02:17:45.496Z,7.36
2024-03-25T02:20:14.046Z,7.40
2024-03-25T02:22:41.107Z,7.19
2024-03-25T02:25:11.929Z,6.91
2024-03-25T02:27:39.091Z,6.65
2024-03-25T02:30:11.756Z,6.42
2024-03-25T02:32:38.982Z,6.18
2024-03-25T02:35:11.341Z,5.88
2024-03-25T02:37:39.046Z,6.41
2024-03-25T02:40:12.658Z,7.08
2024-03-25T02:42:41.001Z,7.22
2024-03-25T02:45:08.577Z,7.04
2024-03-25T02:47:36.013Z,6.78
2024-03-25T02:50:03.075Z,6.57
2024-03-25T02:52:30.000Z,6.36
2024-03-25T02:54:56.887Z,6.09
2024-03-25T02:57:23.743Z,6.60
2024-03-25T02:59:50.757Z,7.30
2024-03-25T03:02:17.935Z,7.42
2024-03-25T03:04:44.826Z,7.26
2024-03-25T03:07:11.779Z,7.02
2024-03-25T03:09:39.035Z,6.77
2024-03-25T03:12:06.235Z,6.54
2024-03-25T03:14:33.259Z,6.27
2024-03-25T03:17:00.172Z,6.73
2024-03-25T03:19:27.279Z,7.41
2024-03-25T03:21:54.557Z,7.56
2024-03-25T03:24:21.553Z,7.43
2024-03-25T03:26:48.379Z,7.23
2024-03-25T03:29:15.322Z,7.00
2024-03-25T03:31:42.085Z,6.80
2024-03-25T03:34:08.943Z,6.56
2024-03-25T03:36:35.741Z,7.10
2024-03-25T03:39:04.562Z,7.75
2024-03-25T03:41:31.667Z,7.84
2024-03-25T03:43:58.656Z,7.68
2024-03-25T03:46:25.791Z,7.37
2024-03-25T03:48:52.829Z,7.08
2024-03-25T03:51:19.675Z,6.77
2024-03-25T03:53:46.514Z,7.14
2024-03-25T03:56:13.455Z,7.73
2024-03-25T03:58:40.400Z,7.79
2024-03-25T04:01:15.513Z,7.56
2024-03-25T04:03:42.471Z,7.29
2024-03-25T04:06:12.883Z,7.07
2024-03-25T04:08:40.256Z,6.70
2024-03-25T04:11:07.607Z,6.99
2024-03-25T04:13:35.297Z,7.56
2024-03-25T04:16:04.066Z,7.61
2024-03-25T04:18:31.802Z,7.33
2024-03-25T04:20:59.280Z,7.03
2024-03-25T04:23:26.515Z,6.78
2024-03-25T04:25:54.059Z,6.52
2024-03-25T04:28:21.480Z,6.93
2024-03-25T04:30:52.211Z,7.52
2024-03-25T04:33:20.033Z,7.53
2024-03-25T04:35:48.234Z,7.29
2024-03-25T04:38:17.329Z,7.03
2024-03-25T04:40:45.091Z,6.67
2024-03-25T04:43:12.014Z,6.28
2024-03-25T04:45:38.904Z,6.73
2024-03-25T04:48:06.231Z,7.35
2024-03-25T04:50:33.188Z,7.37
2024-03-25T04:53:00.222Z,7.06
2024-03-25T04:55:27.051Z,6.76
2024-03-25T04:57:53.895Z,6.54
2024-03-25T05:00:20.935Z,6.28
2024-03-25T05:02:47.906Z,6.77
2024-03-25T05:05:15.042Z,7.41
2024-03-25T05:07:42.475Z,7.52
2024-03-25T05:10:09.648Z,7.31
2024-03-25T05:12:36.774Z,7.05
2024-03-25T05:15:04.061Z,6.78
2024-03-25T05:17:31.414Z,6.42
2024-03-25T05:19:58.431Z,6.78
2024-03-25T05:22:25.475Z,7.40
2024-03-25T05:24:52.307Z,7.52
2024-03-25T05:27:19.186Z,7.38
2024-03-25T05:29:46.095Z,7.17
2024-03-25T05:32:12.947Z,6.94
2024-03-25T05:34:39.931Z,6.62
2024-03-25T05:37:08.736Z,6.96
2024-03-25T05:39:36.326Z,7.55
2024-03-25T05:42:03.410Z,7.65
2024-03-25T05:44:30.472Z,7.44
2024-03-25T05:46:57.317Z,7.18
2024-03-25T05:49:24.312Z,6.98
2024-03-25T05:51:51.169Z,6.72
2024-03-25T05:54:18.094Z,7.17
2024-03-25T05:56:44.871Z,7.78
2024-03-25T05:59:11.730Z,7.83
2024-03-25T06:01:38.962Z,7.48
2024-03-25T06:04:05.817Z,7.12
2024-03-25T06:06:33.568Z,6.89
2024-03-25T06:09:00.510Z,6.68
2024-03-25T06:11:27.401Z,6.44
2024-03-25T06:13:54.302Z,7.03
2024-03-25T06:16:21.389Z,7.79
2024-03-25T06:18:48.581Z,7.99
2024-03-25T06:21:16.157Z,7.90
2024-03-25T06:23:43.219Z,7.78
2024-03-25T06:26:10.230Z,7.66
2024-03-25T06:28:37.286Z,7.54
2024-03-25T06:31:22.741Z,7.33
2024-03-25T06:34:12.043Z,7.94
2024-03-25T06:36:38.878Z,8.64
2024-03-25T06:39:05.800Z,8.75
2024-03-25T06:41:32.837Z,8.68
2024-03-25T06:43:59.944Z,8.55
2024-03-25T06:46:27.080Z,8.38
2024-03-25T06:48:54.001Z,8.17
2024-03-25T06:51:21.051Z,7.98
2024-03-25T06:53:48.604Z,7.76
2024-03-25T06:56:15.681Z,8.31
2024-03-25T06:58:42.819Z,8.94
2024-03-25T07:01:10.019Z,9.07
2024-03-25T07:03:36.832Z,9.02
2024-03-25T07:06:03.928Z,9.00
2024-03-25T07:08:34.592Z,8.97
2024-03-25T07:11:01.523Z,8.92
2024-03-25T07:13:28.485Z,8.84
2024-03-25T07:15:56.681Z,8.76
2024-03-25T07:18:24.292Z,8.68
2024-03-25T07:20:51.067Z,9.38
2024-03-25T07:23:18.410Z,10.26
2024-03-25T07:25:45.454Z,10.54
2024-03-25T07:28:12.599Z,10.51
2024-03-25T07:30:39.647Z,10.30
2024-03-25T07:33:06.906Z,10.10
2024-03-25T07:35:36.518Z,10.07
2024-03-25T07:38:04.361Z,10.21
2024-03-25T07:40:31.560Z,10.35
2024-03-25T07:42:58.463Z,10.47
2024-03-25T07:45:25.434Z,10.52
2024-03-25T07:47:53.727Z,11.41
2024-03-25T07:50:21.139Z,12.74
2024-03-25T07:52:48.055Z,13.49
2024-03-25T07:55:16.130Z,13.94
2024-03-25T07:57:43.082Z,14.43
2024-03-25T08:00:11.059Z,15.12
2024-03-25T08:02:41.304Z,15.74
2024-03-25T08:05:09.731Z,16.33
2024-03-25T08:07:36.897Z,17.04
2024-03-25T08:10:05.079Z,17.59
2024-03-25T08:12:32.479Z,17.92
2024-03-25T08:14:59.986Z,18.06
2024-03-25T08:17:27.370Z,18.23
2024-03-25T08:19:54.427Z,18.49
2024-03-25T08:22:21.304Z,18.73
2024-03-25T08:24:48.313Z,19.07
2024-03-25T08:27:16.297Z,19.21
2024-03-25T08:29:43.227Z,19.33
2024-03-25T08:32:10.228Z,19.56
2024-03-25T08:34:37.440Z,19.90
2024-03-25T08:37:05.297Z,20.10
2024-03-25T08:39:32.325Z,20.27
2024-03-25T08:41:59.378Z,20.44
2024-03-25T08:44:26.637Z,20.73
2024-03-25T08:46:53.568Z,21.01
2024-03-25T08:49:20.723Z,21.26
2024-03-25T08:51:48.350Z,21.57
2024-03-25T08:54:15.394Z,21.57
2024-03-25T08:56:42.518Z,21.49
2024-03-25T08:59:10.885Z,21.27
2024-03-25T09:01:38.089Z,21.01
2024-03-25T09:04:10.394Z,21.21
2024-03-25T09:06:38.855Z,21.43
2024-03-25T09:09:24.440Z,21.58
2024-03-25T09:11:51.184Z,21.73
2024-03-25T09:14:18.222Z,21.92
2024-03-25T09:16:45.375Z,22.22
2024-03-25T09:19:12.448Z,22.33
2024-03-25T09:21:39.459Z,22.33
2024-03-25T09:24:06.834Z,22.36
2024-03-25T09:26:34.166Z,22.21
2024-03-25T09:29:01.831Z,22.27
2024-03-25T09:31:29.443Z,22.60
2024-03-25T09:33:56.473Z,22.84
2024-03-25T09:36:23.507Z,22.94
2024-03-25T09:38:52.167Z,23.12
2024-03-25T09:41:19.131Z,23.28
2024-03-25T09:43:51.063Z,23.34
2024-03-25T09:46:18.273Z,22.98
2024-03-25T09:48:45.618Z,23.10
2024-03-25T09:51:12.507Z,23.28
2024-03-25T09:53:39.719Z,23.40
2024-03-25T09:56:06.926Z,23.53
2024-03-25T09:58:35.206Z,23.69
2024-03-25T10:01:04.536Z,23.92
2024-03-25T10:03:31.853Z,24.07
2024-03-25T10:05:58.815Z,24.37
2024-03-25T10:08:27.473Z,24.53
2024-03-25T10:10:56.708Z,24.42
2024-03-25T10:13:25.898Z,24.33
2024-03-25T10:15:53.071Z,24.34
2024-03-25T10:18:20.048Z,24.46
2024-03-25T10:20:52.997Z,24.50
2024-03-25T10:23:24.025Z,24.48
2024-03-25T10:25:53.006Z,24.20
2024-03-25T10:28:19.963Z,24.01
2024-03-25T10:30:47.111Z,23.87
2024-03-25T10:33:14.315Z,23.99
2024-03-25T10:35:41.477Z,24.16
2024-03-25T10:38:11.875Z,24.25
2024-03-25T10:40:39.766Z,24.48
2024-03-25T10:43:14.591Z,24.69
2024-03-25T10:45:42.280Z,24.74
2024-03-25T10:48:16.108Z,24.53
2024-03-25T10:50:44.261Z,24.03
2024-03-25T10:53:15.643Z,23.41
2024-03-25T10:55:42.701Z,23.18
2024-03-25T10:58:09.784Z,23.25
2024-03-25T11:00:37.576Z,23.13
2024-03-25T11:03:04.925Z,22.47
2024-03-25T11:05:32.085Z,21.80
2024-03-25T11:08:00.028Z,21.14
2024-03-25T11:10:30.680Z,20.48
2024-03-25T11:12:57.734Z,19.87
2024-03-25T11:15:24.740Z,19.36
2024-03-25T11:17:52.136Z,18.88
2024-03-25T11:20:19.222Z,18.44
2024-03-25T11:22:52.690Z,18.15
2024-03-25T11:25:21.739Z,17.83
2024-03-25T11:27:48.719Z,17.52
2024-03-25T11:30:15.943Z,17.36
2024-03-25T11:32:55.724Z,17.30
2024-03-25T11:35:22.747Z,17.96
2024-03-25T11:37:51.315Z,18.79
2024-03-25T11:40:18.391Z,19.32
2024-03-25T11:42:45.946Z,19.34
2024-03-25T11:45:19.656Z,19.22
2024-03-25T11:47:47.821Z,18.95
2024-03-25T11:50:16.195Z,19.14
2024-03-25T11:52:43.352Z,19.68
2024-03-25T11:55:10.979Z,19.95
2024-03-25T11:57:38.053Z,19.80
2024-03-25T12:00:11.652Z,19.50
2024-03-25T12:02:45.560Z,19.27
2024-03-25T12:05:14.685Z,19.00
2024-03-25T12:07:41.674Z,18.56
2024-03-25T12:10:27.707Z,18.18
2024-03-25T12:12:55.022Z,17.85
2024-03-25T12:15:22.646Z,17.55
2024-03-25T12:17:49.755Z,17.27
2024-03-25T12:20:18.357Z,17.46
2024-03-25T12:22:45.567Z,17.97
2024-03-25T12:25:12.535Z,18.41
2024-03-25T12:27:40.482Z,18.80
2024-03-25T12:30:11.051Z,19.15
2024-03-25T12:32:45.746Z,19.45
2024-03-25T12:35:14.375Z,19.74
2024-03-25T12:37:42.038Z,19.98
2024-03-25T12:40:11.787Z,20.11
2024-03-25T12:42:40.007Z,19.98
2024-03-25T12:48:17.509Z,19.58
2024-03-25T12:50:44.433Z,19.45
2024-03-25T12:53:11.981Z,19.25
2024-03-25T12:55:38.913Z,18.96
2024-03-25T12:58:05.793Z,18.57
2024-03-25T13:00:32.707Z,18.32
2024-03-25T13:02:59.756Z,18.15
2024-03-25T13:05:26.628Z,18.07
2024-03-25T13:07:53.782Z,17.94
2024-03-25T13:10:21.013Z,17.88
2024-03-25T13:12:48.064Z,18.05
2024-03-25T13:15:15.120Z,18.28
2024-03-25T13:17:42.196Z,18.32
2024-03-25T13:20:09.599Z,18.27
2024-03-25T13:22:36.700Z,18.12
2024-03-25T13:25:03.656Z,17.88
2024-03-25T13:27:30.904Z,17.55
2024-03-25T13:29:57.908Z,17.25
2024-03-25T13:32:24.759Z,16.94
2024-03-25T13:34:52.118Z,16.68
2024-03-25T13:37:19.156Z,16.33
2024-03-25T13:39:47.177Z,16.10
2024-03-25T13:42:13.949Z,16.02
2024-03-25T13:44:41.303Z,15.89
2024-03-25T13:47:08.749Z,15.73
2024-03-25T13:49:35.714Z,15.60
2024-03-25T13:52:04.894Z,15.52
2024-03-25T13:54:32.036Z,15.50
2024-03-25T13:56:58.904Z,15.46
2024-03-25T13:59:26.345Z,15.39
2024-03-25T14:01:54.965Z,15.33
2024-03-25T14:04:22.004Z,15.27
2024-03-25T14:06:50.572Z,15.17
2024-03-25T14:09:26.973Z,15.11
2024-03-25T14:11:53.890Z,15.03
2024-03-25T14:14:20.827Z,15.03
2024-03-25T14:16:49.065Z,15.20
2024-03-25T14:19:16.361Z,15.46
2024-03-25T14:21:43.283Z,15.74
2024-03-25T14:24:10.618Z,15.95
2024-03-25T14:26:38.017Z,15.99
2024-03-25T14:29:05.034Z,15.93
2024-03-25T14:31:32.187Z,15.99
2024-03-25T14:33:59.758Z,16.04
2024-03-25T14:36:26.782Z,16.05
2024-03-25T14:38:53.836Z,15.98
2024-03-25T14:41:21.345Z,15.80
2024-03-25T14:43:49.623Z,15.53
2024-03-25T14:46:16.447Z,15.26
2024-03-25T14:48:43.384Z,15.06
2024-03-25T14:51:10.430Z,14.84
2024-03-25T14:53:37.373Z,14.64
2024-03-25T14:56:05.906Z,14.48
2024-03-25T14:58:33.509Z,14.37
2024-03-25T15:01:00.401Z,14.26
2024-03-25T15:03:27.802Z,14.15
2024-03-25T15:05:54.759Z,14.04
2024-03-25T15:08:21.718Z,13.88
2024-03-25T15:10:48.829Z,13.73
2024-03-25T15:13:15.723Z,13.60
2024-03-25T15:15:44.271Z,13.48
2024-03-25T15:18:11.146Z,13.36
2024-03-25T15:20:38.248Z,13.24
2024-03-25T15:23:05.306Z,13.15
2024-03-25T15:25:32.395Z,13.05
2024-03-25T15:27:59.304Z,12.97
2024-03-25T15:30:26.259Z,12.90
2024-03-25T15:32:53.264Z,12.82
2024-03-25T15:35:20.334Z,12.75
2024-03-25T15:37:47.195Z,12.69
2024-03-25T15:40:19.321Z,12.60
2024-03-25T15:42:46.303Z,12.55
2024-03-25T15:45:13.396Z,12.47
2024-03-25T15:47:41.553Z,12.37
2024-03-25T15:50:09.482Z,12.28
2024-03-25T15:52:36.835Z,12.21
2024-03-25T15:55:04.307Z,12.14
2024-03-25T15:57:31.641Z,12.08
2024-03-25T15:59:58.740Z,11.99
2024-03-25T16:02:26.404Z,11.96
2024-03-25T16:04:53.207Z,11.96
2024-03-25T16:07:20.336Z,11.94
2024-03-25T16:09:47.725Z,11.93
2024-03-25T16:12:14.658Z,11.89
2024-03-25T16:14:44.849Z,11.83
2024-03-25T16:17:12.008Z,11.72
2024-03-25T16:19:39.262Z,11.58
2024-03-25T16:22:07.379Z,11.42
2024-03-25T16:24:34.337Z,11.31
2024-03-25T16:27:01.255Z,11.19
2024-03-25T16:29:28.307Z,11.08
2024-03-25T16:31:55.601Z,10.96
2024-03-25T16:34:23.189Z,10.82
2024-03-25T16:36:50.385Z,10.71
2024-03-25T16:39:17.278Z,10.62
2024-03-25T16:41:44.262Z,10.52
2024-03-25T16:44:11.287Z,10.43
2024-03-25T16:46:38.928Z,10.32
2024-03-25T16:49:05.780Z,10.21
2024-03-25T16:51:32.955Z,10.10
2024-03-25T16:53:59.778Z,9.97
2024-03-25T16:56:29.036Z,9.86
2024-03-25T16:58:55.935Z,9.76
2024-03-25T17:01:22.802Z,9.66
2024-03-25T17:03:51.999Z,9.55
2024-03-25T17:06:18.901Z,9.46
2024-03-25T17:08:45.813Z,9.36
2024-03-25T17:11:13.110Z,9.28
2024-03-25T17:13:39.978Z,9.23
2024-03-25T17:16:07.363Z,9.17
2024-03-25T17:18:34.590Z,9.13
2024-03-25T17:21:01.612Z,9.07
2024-03-25T17:23:28.679Z,9.03
2024-03-25T17:25:55.675Z,9.01
2024-03-25T17:28:22.513Z,9.03
2024-03-25T17:30:49.412Z,9.01
2024-03-25T17:33:16.827Z,9.00
2024-03-25T17:35:43.686Z,9.01
2024-03-25T17:38:10.584Z,8.99
2024-03-25T17:40:38.714Z,8.95
2024-03-25T17:43:05.805Z,8.93
2024-03-25T17:45:32.883Z,8.90
2024-03-25T17:49:31.999Z,8.55
2024-03-25T17:51:58.819Z,8.66
2024-03-25T17:54:26.364Z,8.63
2024-03-25T17:56:53.219Z,8.59
2024-03-25T17:59:20.678Z,8.54
2024-03-25T18:01:47.644Z,8.50
2024-03-25T18:04:14.909Z,8.48
2024-03-25T18:06:41.718Z,8.48
2024-03-25T18:09:09.676Z,8.47
2024-03-25T18:11:36.923Z,8.46
2024-03-25T18:14:03.992Z,8.36
2024-03-25T18:16:31.220Z,8.91
2024-03-25T18:18:58.285Z,9.64
2024-03-25T18:21:25.311Z,9.83
2024-03-25T18:23:57.239Z,9.74
2024-03-25T18:26:24.736Z,9.54
2024-03-25T18:28:51.772Z,9.32
2024-03-25T18:31:18.820Z,9.10
2024-03-25T18:33:45.604Z,8.93
2024-03-25T18:36:13.026Z,8.77
2024-03-25T18:38:40.193Z,8.64
2024-03-25T18:41:07.251Z,8.51
2024-03-25T18:43:35.022Z,8.40
2024-03-25T18:46:01.950Z,8.31
2024-03-25T18:48:29.115Z,8.24
2024-03-25T18:50:56.197Z,8.19
2024-03-25T18:53:23.199Z,8.13
2024-03-25T18:55:50.034Z,8.07
2024-03-25T18:58:17.095Z,7.96
2024-03-25T19:00:44.034Z,8.57
2024-03-25T19:03:11.075Z,9.34
2024-03-25T19:05:38.212Z,9.58
2024-03-25T19:08:05.342Z,9.48
2024-03-25T19:10:32.560Z,9.30
2024-03-25T19:12:59.762Z,9.12
2024-03-25T19:15:26.657Z,8.97
2024-03-25T19:17:53.759Z,8.83
2024-03-25T19:20:20.620Z,8.71
2024-03-25T19:22:50.554Z,8.60
2024-03-25T19:25:18.632Z,8.48
2024-03-25T19:27:45.619Z,8.38
2024-03-25T19:30:12.921Z,8.30
2024-03-25T19:32:40.048Z,8.24
2024-03-25T19:35:07.094Z,8.19
2024-03-25T19:37:34.246Z,8.06
2024-03-25T19:40:01.224Z,8.57
2024-03-25T19:42:28.167Z,9.28
2024-03-25T19:44:55.106Z,9.38
2024-03-25T19:47:22.042Z,9.22
2024-03-25T19:49:48.971Z,9.02
2024-03-25T19:52:16.001Z,8.84
2024-03-25T19:54:42.998Z,8.68
2024-03-25T19:57:11.239Z,8.55
2024-03-25T19:59:38.185Z,8.42
2024-03-25T20:02:05.232Z,8.31
2024-03-25T20:04:32.339Z,8.20
2024-03-25T20:06:59.916Z,8.09
2024-03-25T20:09:26.759Z,7.92
2024-03-25T20:11:53.824Z,8.41
2024-03-25T20:14:21.778Z,9.07
2024-03-25T20:16:48.836Z,9.19
2024-03-25T20:19:15.983Z,9.03
2024-03-25T20:21:44.518Z,8.81
2024-03-25T20:24:11.528Z,8.58
2024-03-25T20:26:38.580Z,8.39
2024-03-25T20:29:05.930Z,8.23
2024-03-25T20:31:32.810Z,8.07
2024-03-25T20:33:59.825Z,7.95
2024-03-25T20:36:26.941Z,7.79
2024-03-25T20:38:53.990Z,8.28
2024-03-25T20:41:20.833Z,8.99
2024-03-25T20:43:48.923Z,9.18
2024-03-25T20:46:17.103Z,9.11
2024-03-25T20:48:43.929Z,8.96
2024-03-25T20:51:10.697Z,8.78
2024-03-25T20:53:37.608Z,8.63
2024-03-25T20:56:05.676Z,8.51
2024-03-25T20:58:32.857Z,8.42
2024-03-25T21:00:59.775Z,8.34
2024-03-25T21:03:26.618Z,8.29
2024-03-25T21:05:59.840Z,8.24
2024-03-25T21:08:26.678Z,8.13
2024-03-25T21:10:53.506Z,8.75
2024-03-25T21:13:20.344Z,9.50
2024-03-25T21:15:47.165Z,9.65
2024-03-25T21:18:14.218Z,9.48
2024-03-25T21:20:41.281Z,9.25
2024-03-25T21:23:08.020Z,9.00
2024-03-25T21:25:35.061Z,8.78
2024-03-25T21:28:03.694Z,8.60
2024-03-25T21:30:31.557Z,8.46
2024-03-25T21:32:58.556Z,8.33
2024-03-25T21:35:25.406Z,8.25
2024-03-25T21:37:52.466Z,8.10
2024-03-25T21:40:19.280Z,8.60
2024-03-25T21:42:46.312Z,9.28
2024-03-25T21:45:13.186Z,9.47
2024-03-25T21:47:40.532Z,9.25
2024-03-25T21:50:07.579Z,8.95
2024-03-25T21:52:34.503Z,8.65
2024-03-25T21:55:01.552Z,8.35
2024-03-25T21:57:28.734Z,8.04
2024-03-25T21:59:55.673Z,7.77
2024-03-25T22:02:22.709Z,7.53
2024-03-25T22:04:49.773Z,7.24
2024-03-25T22:07:16.693Z,7.62
2024-03-25T22:09:43.636Z,8.20
2024-03-25T22:12:10.597Z,8.25
2024-03-25T22:14:37.834Z,8.02
2024-03-25T22:17:04.786Z,7.76
2024-03-25T22:19:31.939Z,7.49
2024-03-25T22:21:59.719Z,7.24
2024-03-25T22:24:26.591Z,6.98
2024-03-25T22:26:53.598Z,6.71
2024-03-25T22:29:20.542Z,6.45
2024-03-25T22:31:48.016Z,6.92
2024-03-25T22:34:14.961Z,7.59
2024-03-25T22:36:41.782Z,7.69
2024-03-25T22:39:09.826Z,7.52
2024-03-25T22:41:36.864Z,7.25
2024-03-25T22:44:03.775Z,6.96
2024-03-25T22:46:30.922Z,6.72
2024-03-25T22:48:57.849Z,6.50
2024-03-25T22:51:24.727Z,6.31
2024-03-25T22:53:51.714Z,6.09
2024-03-25T22:56:18.680Z,6.57
2024-03-25T22:58:45.923Z,7.23
2024-03-25T23:01:12.780Z,7.33
2024-03-25T23:03:39.751Z,7.14
2024-03-25T23:06:07.211Z,6.86
2024-03-25T23:08:34.152Z,6.57
2024-03-25T23:11:01.505Z,6.32
2024-03-25T23:13:28.712Z,6.08
2024-03-25T23:15:55.780Z,5.81
2024-03-25T23:18:22.640Z,6.21
2024-03-25T23:20:50.711Z,6.84
2024-03-25T23:23:17.832Z,6.92
2024-03-25T23:25:45.674Z,6.72
2024-03-25T23:28:13.878Z,6.45
2024-03-25T23:30:41.359Z,6.17
2024-03-25T23:33:08.363Z,5.91
2024-03-25T23:35:35.725Z,5.67
2024-03-25T23:38:02.844Z,5.39
2024-03-25T23:40:29.938Z,5.82
2024-03-25T23:42:57.076Z,6.44
2024-03-25T23:45:24.216Z,6.52
2024-03-25T23:47:51.278Z,6.34
2024-03-25T23:50:18.521Z,6.08
2024-03-25T23:52:45.669Z,5.81
2024-03-25T23:55:12.626Z,5.54
2024-03-25T23:57:39.556Z,5.31
